Time;durP1;ratioP1;P1;durP2;ratioP2;P2;SDS_P1;SDS_P2;PMS_P1;PMS_P2;Temp;Humidity;BMP_temperature;BMP_pressure;BME280_temperature;BME280_humidity;BME280_pressure;Samples;Min_cycle;Max_cycle;Signal;HPM_P1;HPM_P2
2021/05/29 00:01:49;;;;;;;5.90;2.78;;;14.00;79.20;;;;;;4956925;29;20023;-74
2021/05/29 00:04:15;;;;;;;4.72;2.45;;;14.00;79.50;;;;;;4938913;29;20027;-77
2021/05/29 00:06:41;;;;;;;5.43;3.03;;;14.00;79.70;;;;;;4956693;29;20364;-73
2021/05/29 00:09:07;;;;;;;4.85;2.65;;;13.90;79.70;;;;;;4939147;29;20100;-75
2021/05/29 00:11:32;;;;;;;4.47;2.70;;;13.90;79.80;;;;;;4955579;29;20472;-74
2021/05/29 00:13:59;;;;;;;4.85;2.72;;;13.90;80.00;;;;;;4956221;29;20431;-75
2021/05/29 00:16:24;;;;;;;6.18;3.17;;;13.80;80.10;;;;;;4927519;29;20087;-74
2021/05/29 00:18:50;;;;;;;6.10;3.08;;;13.90;80.40;;;;;;4919984;29;20505;-74
2021/05/29 00:21:16;;;;;;;5.63;3.22;;;13.80;80.50;;;;;;4920008;29;20024;-74
2021/05/29 00:23:43;;;;;;;4.25;2.72;;;13.80;80.50;;;;;;4919635;29;20350;-74
2021/05/29 00:26:08;;;;;;;6.10;3.15;;;13.80;80.60;;;;;;4920019;29;20395;-74
2021/05/29 00:28:35;;;;;;;8.93;4.10;;;13.70;80.70;;;;;;4936079;29;20420;-75
2021/05/29 00:31:01;;;;;;;6.38;3.10;;;13.80;80.90;;;;;;4919844;29;20050;-73
2021/05/29 00:33:27;;;;;;;7.72;3.38;;;13.70;81.10;;;;;;4935755;29;20361;-74
2021/05/29 00:35:53;;;;;;;4.95;3.25;;;13.70;81.20;;;;;;4936907;29;20079;-74
2021/05/29 00:38:18;;;;;;;7.75;3.90;;;13.70;81.40;;;;;;4936082;29;20443;-75
2021/05/29 00:40:44;;;;;;;7.75;3.15;;;13.70;81.50;;;;;;4936691;29;20111;-75
2021/05/29 00:43:10;;;;;;;6.72;3.42;;;13.60;81.50;;;;;;4936802;29;20104;-74
2021/05/29 00:45:35;;;;;;;9.88;3.58;;;13.60;81.60;;;;;;4918890;29;20028;-74
2021/05/29 00:48:02;;;;;;;6.15;3.90;;;13.60;81.90;;;;;;4936642;29;20461;-74
2021/05/29 00:50:31;;;;;;;12.05;3.80;;;13.60;82.00;;;;;;4935951;29;20075;-74
2021/05/29 00:52:57;;;;;;;9.48;3.88;;;13.60;82.20;;;;;;4919396;29;20071;-73
2021/05/29 00:55:23;;;;;;;6.63;3.40;;;13.50;82.20;;;;;;4935548;29;20345;-74
2021/05/29 00:57:50;;;;;;;9.27;3.40;;;13.50;82.40;;;;;;4936258;29;20031;-74
2021/05/29 01:00:18;;;;;;;7.85;3.55;;;13.50;82.60;;;;;;4919203;29;20059;-73
2021/05/29 01:02:46;;;;;;;6.90;3.05;;;13.50;82.70;;;;;;4935772;29;20102;-74
2021/05/29 01:05:15;;;;;;;6.38;3.47;;;13.40;82.80;;;;;;4936225;29;20027;-75
2021/05/29 01:07:41;;;;;;;6.78;3.28;;;13.40;82.90;;;;;;4918599;29;20038;-74
2021/05/29 01:10:08;;;;;;;5.18;3.08;;;13.40;82.90;;;;;;4918650;29;20024;-75
2021/05/29 01:12:34;;;;;;;6.82;2.78;;;13.40;83.00;;;;;;4935451;29;20477;-73
2021/05/29 01:15:00;;;;;;;5.80;3.30;;;13.40;82.90;;;;;;4935746;29;20047;-74
2021/05/29 01:17:28;;;;;;;6.95;3.40;;;13.40;83.00;;;;;;4954317;29;20055;-74
2021/05/29 01:19:54;;;;;;;5.90;2.95;;;13.30;82.80;;;;;;4938092;29;20020;-73
2021/05/29 01:22:35;;;;;;;5.35;2.75;;;13.30;83.00;;;;;;4937807;29;20102;-74
2021/05/29 01:25:07;;;;;;;6.10;2.75;;;13.30;83.00;;;;;;4955069;29;20023;-74
2021/05/29 01:27:33;;;;;;;5.68;2.80;;;13.30;83.10;;;;;;4937142;29;20409;-75
2021/05/29 01:29:59;;;;;;;6.38;3.03;;;13.30;83.10;;;;;;4937423;29;20494;-74
2021/05/29 01:32:32;;;;;;;4.97;2.47;;;13.20;83.00;;;;;;4952783;29;20027;-74
2021/05/29 01:34:59;;;;;;;4.85;2.35;;;13.20;83.00;;;;;;4937936;29;20090;-73
2021/05/29 01:37:26;;;;;;;5.72;2.97;;;13.20;83.10;;;;;;4936800;29;20024;-74
2021/05/29 01:39:52;;;;;;;5.57;2.70;;;13.10;83.10;;;;;;4954767;29;20032;-74
2021/05/29 01:42:20;;;;;;;5.80;2.60;;;13.10;83.30;;;;;;4954769;29;20441;-73
2021/05/29 01:44:47;;;;;;;4.18;2.30;;;13.10;83.30;;;;;;4953687;28;20023;-74
2021/05/29 01:47:13;;;;;;;3.10;2.17;;;13.10;83.50;;;;;;4954371;29;20042;-75
2021/05/29 01:49:38;;;;;;;4.40;2.28;;;13.10;83.50;;;;;;4936677;29;20031;-74
2021/05/29 01:52:04;;;;;;;5.70;2.55;;;13.00;83.40;;;;;;4954520;29;20381;-73
2021/05/29 01:54:30;;;;;;;4.82;2.47;;;13.00;83.40;;;;;;4954222;29;20094;-74
2021/05/29 01:56:57;;;;;;;5.15;2.38;;;13.00;83.50;;;;;;4937643;29;20039;-73
2021/05/29 01:59:23;;;;;;;3.75;2.03;;;12.90;83.50;;;;;;4937209;29;20037;-74
2021/05/29 02:01:49;;;;;;;3.78;2.22;;;12.90;83.40;;;;;;4954302;29;20031;-74
2021/05/29 02:04:15;;;;;;;4.25;2.10;;;12.90;83.40;;;;;;4937057;29;20023;-74
2021/05/29 02:06:41;;;;;;;5.50;2.42;;;12.90;83.40;;;;;;4953280;29;20039;-73
2021/05/29 02:09:06;;;;;;;4.05;2.25;;;12.90;83.50;;;;;;4937063;29;20023;-74
2021/05/29 02:11:32;;;;;;;4.35;1.92;;;12.80;83.50;;;;;;4953356;29;20349;-74
2021/05/29 02:13:58;;;;;;;3.92;2.00;;;12.80;83.60;;;;;;4936535;29;20027;-74
2021/05/29 02:16:24;;;;;;;3.67;2.03;;;12.80;83.70;;;;;;4954117;29;20051;-74
2021/05/29 02:18:50;;;;;;;5.45;1.95;;;12.80;83.60;;;;;;4936251;29;20042;-74
2021/05/29 02:21:16;;;;;;;4.35;2.10;;;12.70;83.70;;;;;;4954008;29;20035;-73
2021/05/29 02:23:47;;;;;;;4.47;2.28;;;12.70;83.70;;;;;;4953343;29;20456;-74
2021/05/29 02:26:14;;;;;;;7.60;2.25;;;12.70;83.70;;;;;;4954030;29;20492;-74
2021/05/29 02:28:42;;;;;;;4.32;2.15;;;12.70;83.60;;;;;;4936122;29;20019;-73
2021/05/29 02:31:09;;;;;;;4.03;2.00;;;12.70;83.60;;;;;;4953767;29;20423;-74
2021/05/29 02:33:36;;;;;;;5.78;2.40;;;12.70;83.60;;;;;;4936252;29;20374;-73
2021/05/29 02:36:04;;;;;;;4.57;2.25;;;12.60;83.60;;;;;;4953794;29;20027;-73
2021/05/29 02:38:30;;;;;;;5.20;2.42;;;12.60;83.50;;;;;;4935914;29;20022;-74
2021/05/29 02:40:57;;;;;;;4.30;2.40;;;12.60;83.60;;;;;;4936631;29;20038;-74
2021/05/29 02:43:23;;;;;;;3.42;2.17;;;12.50;83.70;;;;;;4953552;29;20125;-74
2021/05/29 02:45:49;;;;;;;5.07;2.30;;;12.50;83.80;;;;;;4953243;29;20036;-74
2021/05/29 02:48:16;;;;;;;4.78;2.40;;;12.50;84.00;;;;;;4953731;29;20122;-74
2021/05/29 02:50:43;;;;;;;4.47;2.38;;;12.50;84.20;;;;;;4952871;29;20040;-75
2021/05/29 02:53:11;;;;;;;4.25;2.42;;;12.50;84.90;;;;;;4936600;29;20030;-74
2021/05/29 02:55:38;;;;;;;6.05;2.80;;;12.50;84.50;;;;;;4953158;29;20126;-75
2021/05/29 02:58:06;;;;;;;5.80;2.75;;;12.40;84.50;;;;;;4939571;29;20023;-73
2021/05/29 03:00:37;;;;;;;6.53;2.75;;;12.40;84.60;;;;;;4956975;29;20031;-74
2021/05/29 03:03:06;;;;;;;6.25;2.90;;;12.40;84.60;;;;;;4940443;29;20097;-73
2021/05/29 03:05:32;;;;;;;5.22;2.80;;;12.40;84.70;;;;;;4939645;29;20023;-75
2021/05/29 03:07:58;;;;;;;6.55;2.92;;;12.30;84.80;;;;;;4957568;29;20452;-74
2021/05/29 03:10:24;;;;;;;5.18;2.75;;;12.30;84.90;;;;;;4957636;29;20137;-74
2021/05/29 03:12:51;;;;;;;5.25;2.53;;;12.30;85.00;;;;;;4956840;29;20027;-74
2021/05/29 03:15:19;;;;;;;8.25;3.20;;;12.30;85.10;;;;;;4940160;29;20360;-74
2021/05/29 03:17:46;;;;;;;10.60;3.47;;;12.30;85.10;;;;;;4939246;29;20047;-74
2021/05/29 03:20:18;;;;;;;5.68;3.40;;;12.20;85.20;;;;;;4940164;29;20067;-74
2021/05/29 03:22:44;;;;;;;7.63;3.70;;;12.20;85.30;;;;;;4939472;29;20038;-74
2021/05/29 03:25:12;;;;;;;6.03;3.85;;;12.20;85.40;;;;;;4939718;29;20027;-74
2021/05/29 03:27:38;;;;;;;7.30;4.07;;;12.20;85.50;;;;;;4956560;29;20087;-74
2021/05/29 03:30:11;;;;;;;8.27;3.50;;;12.20;85.60;;;;;;4957464;29;20028;-74
2021/05/29 03:32:37;;;;;;;7.50;3.80;;;12.20;85.70;;;;;;4939173;29;20126;-74
2021/05/29 03:35:04;;;;;;;6.82;3.78;;;12.10;85.80;;;;;;4939707;29;20027;-74
2021/05/29 03:37:29;;;;;;;8.25;3.92;;;12.10;85.90;;;;;;4939783;29;20079;-74
2021/05/29 03:39:55;;;;;;;8.10;4.28;;;12.10;85.90;;;;;;4956340;29;20027;-74
2021/05/29 03:42:21;;;;;;;7.13;4.03;;;12.10;85.90;;;;;;4939476;29;20118;-74
2021/05/29 03:44:47;;;;;;;9.32;3.70;;;12.10;86.00;;;;;;4956036;29;20065;-74
2021/05/29 03:47:12;;;;;;;8.55;4.05;;;12.10;85.90;;;;;;4939464;29;20031;-73
2021/05/29 03:49:38;;;;;;;9.77;4.22;;;12.10;85.90;;;;;;4956041;29;20385;-73
2021/05/29 03:52:04;;;;;;;12.63;4.32;;;12.10;86.10;;;;;;4939422;29;20475;-73
2021/05/29 03:54:30;;;;;;;9.85;4.30;;;12.10;86.20;;;;;;4956768;29;20016;-74
2021/05/29 03:56:55;;;;;;;10.80;4.63;;;12.10;86.40;;;;;;4956125;29;20027;-74
2021/05/29 03:59:21;;;;;;;6.88;4.00;;;12.10;86.50;;;;;;4939445;29;20069;-74
2021/05/29 04:01:47;;;;;;;8.65;4.53;;;12.00;86.70;;;;;;4938592;29;20085;-74
2021/05/29 04:04:13;;;;;;;9.10;4.15;;;12.00;86.70;;;;;;4956517;29;20027;-73
2021/05/29 04:06:39;;;;;;;8.50;4.40;;;12.00;86.70;;;;;;4955382;29;20046;-74
2021/05/29 04:09:07;;;;;;;8.10;4.00;;;12.10;86.80;;;;;;4955472;28;20023;-74
2021/05/29 04:11:34;;;;;;;10.15;4.63;;;12.10;86.80;;;;;;4956711;29;20534;-74
2021/05/29 04:13:59;;;;;;;10.32;4.95;;;12.00;86.90;;;;;;4939321;29;20388;-74
2021/05/29 04:16:25;;;;;;;7.57;3.30;;;12.10;86.70;;;;;;4938526;29;20483;-74
2021/05/29 04:18:51;;;;;;;6.60;4.18;;;12.00;86.70;;;;;;4954294;29;20074;-74
2021/05/29 04:21:17;;;;;;;8.55;3.95;;;12.00;86.70;;;;;;4955918;29;20102;-74
2021/05/29 04:23:43;;;;;;;8.27;4.10;;;12.00;86.60;;;;;;4955684;29;20047;-74
2021/05/29 04:26:10;;;;;;;7.20;4.07;;;12.00;87.20;;;;;;4938780;29;20061;-74
2021/05/29 04:28:36;;;;;;;9.15;4.72;;;12.00;86.60;;;;;;4955565;29;20023;-73
2021/05/29 04:31:03;;;;;;;8.98;4.70;;;12.10;86.70;;;;;;4956334;29;20077;-74
2021/05/29 04:33:29;;;;;;;9.38;4.70;;;12.00;86.80;;;;;;4956013;29;20545;-73
2021/05/29 04:35:54;;;;;;;10.15;4.32;;;12.00;86.90;;;;;;4955437;29;20060;-74
2021/05/29 04:38:20;;;;;;;10.07;3.80;;;12.00;86.90;;;;;;4938478;29;20170;-74
2021/05/29 04:40:46;;;;;;;8.43;4.32;;;12.00;86.90;;;;;;4955390;29;20028;-74
2021/05/29 04:43:11;;;;;;;8.02;4.07;;;12.10;87.20;;;;;;4955662;29;20035;-74
2021/05/29 04:45:37;;;;;;;8.27;3.80;;;12.10;87.20;;;;;;4954967;29;20027;-75
2021/05/29 04:48:03;;;;;;;9.38;4.22;;;12.10;87.30;;;;;;4956054;29;20431;-74
2021/05/29 04:50:29;;;;;;;8.02;4.28;;;12.10;87.90;;;;;;4938543;29;20139;-73
2021/05/29 04:52:56;;;;;;;10.40;5.10;;;12.10;87.30;;;;;;4955098;29;20195;-73
2021/05/29 04:55:22;;;;;;;7.50;4.20;;;12.20;87.30;;;;;;4955262;29;20324;-74
2021/05/29 04:57:47;;;;;;;8.18;4.50;;;12.20;87.30;;;;;;4937720;29;20023;-74
2021/05/29 05:00:16;;;;;;;10.05;4.80;;;12.20;87.20;;;;;;4938504;29;20574;-74
2021/05/29 05:02:42;;;;;;;9.85;4.53;;;12.20;87.20;;;;;;4954845;29;20034;-74
2021/05/29 05:05:08;;;;;;;9.68;4.85;;;12.20;87.20;;;;;;4938291;29;20016;-73
2021/05/29 05:07:35;;;;;;;11.32;4.80;;;12.30;87.30;;;;;;4954949;29;20067;-73
2021/05/29 05:10:02;;;;;;;11.48;5.30;;;12.30;87.30;;;;;;4954498;29;20031;-74
2021/05/29 05:12:27;;;;;;;13.38;5.22;;;12.30;87.30;;;;;;4955089;29;20019;-74
2021/05/29 05:14:53;;;;;;;12.48;5.45;;;12.30;87.30;;;;;;4954711;29;20039;-74
2021/05/29 05:17:18;;;;;;;10.27;4.30;;;12.40;87.40;;;;;;4937707;29;20054;-74
2021/05/29 05:19:44;;;;;;;9.70;4.88;;;12.40;87.30;;;;;;4937095;29;20116;-74
2021/05/29 05:22:10;;;;;;;9.90;5.20;;;12.40;87.30;;;;;;4937895;29;20446;-74
2021/05/29 05:24:35;;;;;;;12.05;5.55;;;12.40;87.20;;;;;;4937762;29;20019;-73
2021/05/29 05:27:01;;;;;;;11.20;5.35;;;12.50;87.30;;;;;;4954137;29;20046;-74
2021/05/29 05:29:27;;;;;;;11.23;4.65;;;12.50;87.30;;;;;;4937744;29;20336;-74
2021/05/29 05:31:53;;;;;;;11.95;4.88;;;12.50;87.30;;;;;;4937151;29;20061;-74
2021/05/29 05:34:18;;;;;;;12.63;5.68;;;12.50;87.20;;;;;;4937559;29;20365;-74
2021/05/29 05:36:44;;;;;;;10.23;5.85;;;12.60;87.10;;;;;;4954242;29;20035;-74
2021/05/29 05:39:13;;;;;;;12.27;5.53;;;12.60;87.10;;;;;;4937470;29;20015;-74
2021/05/29 05:41:43;;;;;;;9.88;5.40;;;12.60;87.10;;;;;;4937508;29;20027;-74
2021/05/29 05:44:09;;;;;;;11.77;5.50;;;12.60;87.10;;;;;;4954699;29;20028;-74
2021/05/29 05:46:35;;;;;;;13.70;5.88;;;12.70;87.10;;;;;;4953251;29;20045;-73
2021/05/29 05:49:01;;;;;;;10.18;5.10;;;12.70;87.10;;;;;;4954204;29;20472;-74
2021/05/29 05:51:30;;;;;;;11.32;5.15;;;12.70;87.10;;;;;;4954275;29;20024;-74
2021/05/29 05:53:56;;;;;;;11.10;5.30;;;12.80;87.80;;;;;;4953954;29;20051;-73
2021/05/29 05:56:27;;;;;;;9.65;4.97;;;12.80;87.20;;;;;;4937179;29;20089;-74
2021/05/29 05:58:55;;;;;;;;;;;12.80;87.20;;;;;;4954281;29;20020;-73
2021/05/29 06:01:21;;;;;;;11.98;5.00;;;12.80;87.10;;;;;;4937169;29;19937;-74
2021/05/29 06:03:46;;;;;;;12.00;5.10;;;12.90;87.00;;;;;;4953690;29;20023;-74
2021/05/29 06:06:12;;;;;;;13.27;5.20;;;12.90;86.90;;;;;;4954660;29;20031;-73
2021/05/29 06:08:38;;;;;;;9.05;4.57;;;13.00;86.60;;;;;;4954045;29;20037;-74
2021/05/29 06:11:03;;;;;;;10.02;5.00;;;13.00;86.40;;;;;;4952362;29;20023;-74
2021/05/29 06:21:26;;;;;;;8.95;4.60;;;13.10;86.20;;;;;;4954220;29;20082;-74
2021/05/29 06:23:52;;;;;;;9.45;4.55;;;13.20;86.10;;;;;;4953463;29;20051;-75
2021/05/29 06:26:18;;;;;;;12.35;4.75;;;13.20;86.20;;;;;;4936672;29;20148;-74
2021/05/29 06:28:44;;;;;;;9.70;4.43;;;13.20;86.20;;;;;;4954018;29;20024;-74
2021/05/29 06:31:10;;;;;;;10.13;4.78;;;13.20;86.10;;;;;;4936346;29;20027;-73
2021/05/29 06:33:36;;;;;;;12.23;5.30;;;13.30;86.00;;;;;;4953836;29;20522;-74
2021/05/29 06:36:02;;;;;;;12.73;5.18;;;13.30;85.50;;;;;;4953628;29;20063;-74
2021/05/29 06:38:28;;;;;;;7.60;4.18;;;13.30;85.50;;;;;;4954210;29;20035;-74
2021/05/29 06:40:53;;;;;;;9.57;4.68;;;13.30;85.20;;;;;;4953006;29;20039;-74
2021/05/29 06:43:19;;;;;;;10.30;5.38;;;13.40;85.00;;;;;;4952465;29;20034;-74
2021/05/29 06:45:45;;;;;;;10.60;4.97;;;13.40;84.80;;;;;;4953909;29;20457;-75
2021/05/29 06:48:12;;;;;;;9.05;4.50;;;13.40;84.40;;;;;;4936479;29;20020;-73
2021/05/29 06:50:38;;;;;;;8.32;5.32;;;13.50;84.10;;;;;;4953721;29;20028;-74
2021/05/29 06:53:07;;;;;;;8.43;4.55;;;13.50;84.10;;;;;;4951859;29;20077;-74
2021/05/29 07:01:00;;;;;;;11.23;5.10;;;13.60;83.40;;;;;;4953185;29;20038;-74
2021/05/29 07:03:26;;;;;;;9.35;4.70;;;13.60;83.30;;;;;;4953803;29;20023;-74
2021/05/29 07:05:52;;;;;;;11.25;5.25;;;13.70;83.40;;;;;;4953040;29;20086;-74
2021/05/29 07:08:18;;;;;;;8.60;4.35;;;13.70;83.40;;;;;;4953327;29;20038;-74
2021/05/29 07:10:43;;;;;;;11.48;5.20;;;13.70;83.50;;;;;;4936360;29;20023;-74
2021/05/29 07:13:09;;;;;;;12.82;6.38;;;13.70;83.50;;;;;;4952757;29;20097;-74
2021/05/29 07:15:38;;;;;;;12.55;5.68;;;13.80;83.60;;;;;;4936212;29;20016;-73
2021/05/29 07:18:10;;;;;;;10.40;6.13;;;13.90;83.60;;;;;;4920057;29;20484;-74
2021/05/29 07:20:40;;;;;;;11.43;5.30;;;13.90;83.30;;;;;;4934502;29;20027;-74
2021/05/29 07:23:06;;;;;;;17.98;5.95;;;13.90;83.30;;;;;;4933564;29;20457;-74
2021/05/29 07:25:32;;;;;;;10.95;5.47;;;14.00;83.10;;;;;;4934284;29;20024;-74
2021/05/29 07:27:58;;;;;;;8.70;4.97;;;14.00;82.80;;;;;;4916651;29;20028;-74
2021/05/29 07:30:24;;;;;;;11.10;5.07;;;14.00;82.80;;;;;;4934421;29;20054;-73
2021/05/29 07:32:50;;;;;;;12.90;5.43;;;14.00;82.90;;;;;;4933444;29;20468;-75
2021/05/29 07:35:16;;;;;;;10.40;5.45;;;14.10;82.90;;;;;;4934176;29;20448;-74
2021/05/29 07:37:42;;;;;;;11.93;5.57;;;14.10;82.90;;;;;;4933060;29;20051;-74
2021/05/29 07:40:08;;;;;;;10.23;5.13;;;14.10;82.90;;;;;;4916560;29;20076;-74
2021/05/29 07:42:35;;;;;;;12.30;6.10;;;14.10;82.90;;;;;;4934175;29;20365;-74
2021/05/29 07:45:01;;;;;;;12.35;5.65;;;14.20;83.00;;;;;;4918987;29;20383;-75
2021/05/29 07:47:26;;;;;;;12.60;5.97;;;14.20;82.90;;;;;;4937762;29;20516;-74
2021/05/29 07:49:52;;;;;;;9.98;5.07;;;14.20;82.90;;;;;;4936948;29;20102;-73
2021/05/29 07:52:18;;;;;;;10.20;5.03;;;14.30;83.00;;;;;;4937511;29;20052;-74
2021/05/29 07:54:44;;;;;;;11.48;4.68;;;14.30;82.70;;;;;;4920405;29;20475;-74
2021/05/29 07:57:10;;;;;;;14.60;6.10;;;14.40;82.30;;;;;;4937240;29;20036;-74
2021/05/29 07:59:37;;;;;;;10.27;5.38;;;14.50;81.90;;;;;;4920308;29;20031;-74
2021/05/29 08:02:03;;;;;;;10.02;5.15;;;14.60;82.00;;;;;;4936783;29;20464;-73
2021/05/29 08:04:29;;;;;;;12.05;5.25;;;14.60;81.70;;;;;;4920231;29;20031;-74
2021/05/29 08:06:55;;;;;;;9.27;4.93;;;14.60;81.50;;;;;;4919204;29;20028;-74
2021/05/29 08:09:21;;;;;;;9.18;4.85;;;14.60;81.30;;;;;;4937062;29;20032;-75
2021/05/29 08:11:47;;;;;;;9.55;4.97;;;14.70;81.30;;;;;;4920168;29;20465;-73
2021/05/29 08:14:14;;;;;;;8.10;4.70;;;14.70;81.30;;;;;;4936591;29;20015;-74
2021/05/29 08:16:40;;;;;;;10.27;4.35;;;14.70;81.30;;;;;;4941058;29;20514;-73
2021/05/29 08:19:11;;;;;;;9.82;4.65;;;14.70;81.20;;;;;;4955760;29;20112;-75
2021/05/29 08:21:41;;;;;;;8.68;4.20;;;14.80;80.90;;;;;;4956328;29;20023;-74
2021/05/29 08:24:08;;;;;;;8.52;4.13;;;14.90;80.30;;;;;;4938384;29;20083;-74
2021/05/29 08:26:35;;;;;;;7.28;4.20;;;15.00;80.00;;;;;;4954778;29;20123;-75
2021/05/29 08:29:01;;;;;;;9.23;4.07;;;15.00;80.00;;;;;;4938184;29;20030;-74
2021/05/29 08:31:27;;;;;;;12.57;4.70;;;15.10;79.70;;;;;;4956241;29;20531;-74
2021/05/29 08:33:53;;;;;;;8.98;4.15;;;15.20;79.60;;;;;;4938727;29;20158;-77
2021/05/29 08:36:19;;;;;;;9.10;4.03;;;15.40;79.40;;;;;;4956415;29;20400;-74
2021/05/29 08:38:45;;;;;;;7.32;3.58;;;15.40;79.20;;;;;;4938623;29;20052;-75
2021/05/29 08:41:11;;;;;;;9.70;4.63;;;15.40;79.10;;;;;;4954137;29;20110;-74
2021/05/29 08:43:37;;;;;;;8.07;4.50;;;15.40;78.30;;;;;;4938533;29;20027;-74
2021/05/29 08:46:04;;;;;;;8.60;4.80;;;15.40;77.60;;;;;;4937804;29;20044;-74
2021/05/29 08:48:29;;;;;;;11.02;4.75;;;15.40;77.80;;;;;;4955732;29;20027;-75
2021/05/29 08:51:14;;;;;;;8.30;4.10;;;15.40;78.00;;;;;;4937774;29;20024;-73
2021/05/29 08:53:49;;;;;;;6.35;3.70;;;15.50;78.10;;;;;;4938483;29;20091;-74
2021/05/29 08:56:16;;;;;;;8.80;4.00;;;15.60;78.00;;;;;;4954635;29;20063;-74
2021/05/29 08:58:42;;;;;;;8.75;4.30;;;15.70;77.50;;;;;;4938259;29;20028;-74
2021/05/29 09:01:09;;;;;;;8.10;4.03;;;15.90;76.50;;;;;;4955003;29;20031;-75
2021/05/29 09:03:53;;;;;;;7.70;4.07;;;16.00;76.10;;;;;;4938200;29;20051;-74
2021/05/29 09:06:30;;;;;;;9.68;4.35;;;16.20;75.80;;;;;;4954970;29;20082;-75
2021/05/29 09:08:58;;;;;;;7.93;4.03;;;16.30;75.70;;;;;;4937666;29;20110;-77
2021/05/29 09:11:41;;;;;;;7.78;3.95;;;16.30;75.40;;;;;;4938224;29;20142;-74
2021/05/29 09:14:25;;;;;;;8.25;4.10;;;16.40;75.20;;;;;;4954936;29;20047;-74
2021/05/29 09:17:25;;;;;;;9.07;4.15;;;16.50;74.50;;;;;;4955147;29;20475;-74
2021/05/29 09:19:56;;;;;;;9.02;3.97;;;16.60;74.40;;;;;;4954353;29;20037;-75
2021/05/29 09:22:29;;;;;;;14.13;5.22;;;16.70;73.80;;;;;;4955446;29;20024;-74
2021/05/29 09:25:04;;;;;;;8.60;4.55;;;16.80;72.10;;;;;;4955449;29;20041;-74
2021/05/29 09:27:33;;;;;;;7.28;4.00;;;16.80;72.50;;;;;;4937864;29;20063;-74
2021/05/29 09:29:59;;;;;;;8.77;4.78;;;16.90;72.60;;;;;;4945203;28;20526;-74
2021/05/29 09:32:25;;;;;;;7.72;4.45;;;16.90;71.60;;;;;;4965707;28;20047;-74
2021/05/29 09:34:53;;;;;;;7.65;4.47;;;17.00;71.80;;;;;;4967209;28;20079;-73
2021/05/29 09:37:23;;;;;;;8.77;4.65;;;17.10;71.20;;;;;;4940880;29;20055;-73
2021/05/29 09:39:52;;;;;;;7.88;3.67;;;17.20;71.30;;;;;;4953725;29;20061;-73
2021/05/29 09:42:19;;;;;;;7.93;3.95;;;17.30;71.30;;;;;;4936573;29;20468;-74
2021/05/29 09:44:45;;;;;;;8.27;4.43;;;17.40;71.00;;;;;;4937382;29;20379;-73
2021/05/29 09:47:15;;;;;;;9.48;4.80;;;17.50;70.40;;;;;;4936732;29;20037;-72
2021/05/29 09:49:54;;;;;;;9.85;4.30;;;17.60;70.30;;;;;;4937326;29;20056;-74
2021/05/29 09:52:25;;;;;;;7.65;3.92;;;17.70;70.60;;;;;;4936821;29;20031;-74
2021/05/29 09:54:52;;;;;;;8.70;4.20;;;17.80;70.60;;;;;;4937285;29;20122;-73
2021/05/29 09:57:18;;;;;;;8.30;4.70;;;17.80;70.20;;;;;;4936462;29;20046;-73
2021/05/29 09:59:55;;;;;;;9.93;4.43;;;17.70;68.80;;;;;;4953247;29;20463;-74
2021/05/29 10:02:21;;;;;;;9.63;4.57;;;17.70;69.30;;;;;;4953821;29;20030;-74
2021/05/29 10:04:52;;;;;;;6.78;3.47;;;17.70;69.40;;;;;;4937216;29;20031;-74
2021/05/29 10:07:19;;;;;;;9.15;4.32;;;17.70;69.70;;;;;;4935474;29;20043;-73
2021/05/29 10:09:45;;;;;;;7.28;4.30;;;17.80;69.40;;;;;;4937068;29;20119;-74
2021/05/29 10:12:11;;;;;;;5.82;3.55;;;17.90;69.40;;;;;;4953312;29;20400;-73
2021/05/29 10:14:37;;;;;;;8.02;4.15;;;18.00;69.20;;;;;;4954117;29;20027;-73
2021/05/29 10:17:05;;;;;;;7.28;3.72;;;18.10;68.50;;;;;;4935879;29;20077;-74
2021/05/29 10:19:31;;;;;;;10.38;4.70;;;18.10;68.50;;;;;;4936556;29;20058;-73
2021/05/29 10:22:02;;;;;;;8.68;4.18;;;18.00;68.00;;;;;;4954058;29;20027;-74
2021/05/29 10:24:27;;;;;;;;;;;18.00;67.90;;;;;;4954582;29;20023;-73
2021/05/29 10:26:54;;;;;;;6.78;3.47;;;18.00;68.10;;;;;;4936631;29;19914;-74
2021/05/29 10:29:25;;;;;;;6.95;3.50;;;18.10;68.00;;;;;;4936173;29;20059;-74
2021/05/29 10:31:50;;;;;;;7.65;3.25;;;18.20;67.50;;;;;;4936647;29;20027;-74
2021/05/29 10:34:16;;;;;;;8.85;3.38;;;18.30;67.30;;;;;;4936156;29;20024;-74
2021/05/29 10:36:45;;;;;;;6.97;3.22;;;18.50;67.00;;;;;;4953956;29;20126;-73
2021/05/29 10:39:12;;;;;;;7.22;3.38;;;18.70;66.10;;;;;;4935527;29;20034;-72
2021/05/29 10:41:58;;;;;;;5.80;3.05;;;18.70;66.10;;;;;;4936364;29;20126;-72
2021/05/29 10:44:42;;;;;;;6.22;3.15;;;18.80;65.80;;;;;;4935908;29;20032;-74
2021/05/29 10:47:15;;;;;;;7.45;3.67;;;18.80;65.30;;;;;;4953183;29;20035;-74
2021/05/29 10:49:50;;;;;;;6.50;3.13;;;18.80;64.70;;;;;;4953673;29;20031;-73
2021/05/29 10:52:46;;;;;;;6.40;2.85;;;18.80;65.00;;;;;;4926601;28;20055;-73
2021/05/29 10:55:14;;;;;;;8.80;3.58;;;18.90;65.10;;;;;;4970926;28;20062;-72
2021/05/29 10:57:55;;;;;;;7.60;3.60;;;18.90;65.00;;;;;;4972591;28;20141;-74
2021/05/29 11:00:36;;;;;;;5.32;2.90;;;19.00;64.80;;;;;;4954858;28;20030;-74
2021/05/29 11:03:21;;;;;;;5.38;2.80;;;19.10;64.10;;;;;;4972769;28;20033;-73
2021/05/29 11:05:53;;;;;;;6.47;2.97;;;19.30;64.10;;;;;;4955276;28;20088;-74
2021/05/29 11:08:50;;;;;;;6.15;3.65;;;19.50;63.50;;;;;;4972669;28;20026;-73
2021/05/29 11:11:42;;;;;;;6.88;3.50;;;19.50;62.60;;;;;;4966540;28;20077;-74
2021/05/29 11:14:41;;;;;;;5.32;3.08;;;19.40;62.60;;;;;;4972211;28;20023;-74
2021/05/29 11:17:08;;;;;;;7.40;3.45;;;19.30;62.80;;;;;;4966098;28;20058;-76
2021/05/29 11:19:35;;;;;;;6.18;3.33;;;19.20;62.90;;;;;;4975759;28;20047;-73
2021/05/29 11:22:08;;;;;;;6.15;3.20;;;19.00;63.10;;;;;;4958730;28;20015;-74
2021/05/29 11:24:48;;;;;;;6.65;3.28;;;19.00;63.90;;;;;;4976397;28;20065;-75
2021/05/29 11:27:34;;;;;;;6.13;2.95;;;19.30;63.40;;;;;;4958533;28;20499;-75
2021/05/29 11:30:04;;;;;;;5.55;3.10;;;19.60;61.80;;;;;;4976352;28;20051;-73
2021/05/29 11:35:31;;;;;;;5.70;3.22;;;19.70;61.20;;;;;;4975721;28;20031;-74
2021/05/29 11:38:27;;;;;;;5.28;3.33;;;19.60;60.40;;;;;;4958864;28;20039;-73
2021/05/29 11:40:59;;;;;;;6.47;3.60;;;19.60;60.90;;;;;;4958910;28;20054;-74
2021/05/29 11:43:48;;;;;;;6.95;3.40;;;19.80;59.70;;;;;;4975331;28;20078;-74
2021/05/29 11:46:20;;;;;;;5.25;2.72;;;20.10;60.10;;;;;;4957684;28;20473;-75
2021/05/29 11:48:57;;;;;;;5.88;2.92;;;20.30;60.20;;;;;;4976238;28;20474;-73
2021/05/29 11:51:24;;;;;;;5.55;2.72;;;20.60;59.70;;;;;;4975580;28;20037;-74
2021/05/29 11:53:51;;;;;;;4.35;2.67;;;20.90;58.40;;;;;;4976119;28;20060;-76
2021/05/29 11:56:31;;;;;;;5.57;3.10;;;20.90;57.90;;;;;;4975564;28;20039;-73
2021/05/29 11:58:58;;;;;;;6.47;3.10;;;20.80;56.60;;;;;;4976097;28;20099;-74
2021/05/29 12:01:38;;;;;;;5.40;2.63;;;20.50;57.30;;;;;;4957917;28;20142;-74
2021/05/29 12:04:12;;;;;;;6.17;2.87;;;20.20;57.60;;;;;;4975906;28;20471;-73
2021/05/29 12:06:43;;;;;;;5.88;2.67;;;20.10;58.10;;;;;;4976006;28;20035;-74
2021/05/29 12:09:10;;;;;;;5.28;2.80;;;20.30;58.20;;;;;;4975857;28;20554;-74
2021/05/29 12:11:38;;;;;;;5.20;2.70;;;20.50;57.50;;;;;;4958396;28;20031;-71
2021/05/29 12:14:09;;;;;;;3.83;2.00;;;20.80;57.50;;;;;;4975783;28;20074;-73
2021/05/29 12:16:41;;;;;;;4.35;2.35;;;20.90;57.30;;;;;;4957847;28;20030;-74
2021/05/29 12:19:08;;;;;;;5.03;2.45;;;20.90;56.60;;;;;;4957925;28;20114;-74
2021/05/29 12:21:41;;;;;;;4.80;2.55;;;20.60;57.00;;;;;;4975129;28;20031;-75
2021/05/29 12:24:08;;;;;;;5.28;2.30;;;20.50;57.60;;;;;;4958168;28;20518;-73
2021/05/29 12:26:34;;;;;;;4.00;2.45;;;20.60;58.00;;;;;;4975017;28;20370;-74
2021/05/29 12:29:00;;;;;;;4.88;2.67;;;20.90;57.50;;;;;;4957451;28;20113;-74
2021/05/29 12:31:53;;;;;;;6.72;2.42;;;21.10;57.10;;;;;;4974334;28;20027;-74
2021/05/29 12:34:20;;;;;;;3.75;2.35;;;21.60;56.40;;;;;;4974776;28;20464;-74
2021/05/29 12:37:13;;;;;;;5.80;2.40;;;21.70;55.90;;;;;;4957612;28;20083;-75
2021/05/29 12:39:43;;;;;;;4.30;2.55;;;21.70;56.20;;;;;;4974705;28;20065;-75
2021/05/29 12:42:23;;;;;;;8.03;2.47;;;21.60;54.70;;;;;;4974928;28;20101;-74
2021/05/29 12:44:52;;;;;;;6.95;2.92;;;21.40;55.40;;;;;;4973827;28;20035;-74
2021/05/29 12:47:19;;;;;;;5.18;2.40;;;21.20;55.40;;;;;;4972863;28;20031;-74
2021/05/29 12:49:44;;;;;;;4.35;2.30;;;21.10;56.20;;;;;;4973605;28;20035;-74
2021/05/29 12:52:32;;;;;;;4.00;2.40;;;21.30;56.00;;;;;;4973669;28;20023;-74
2021/05/29 12:54:59;;;;;;;3.72;2.30;;;21.60;55.00;;;;;;4973838;28;20494;-74
2021/05/29 12:57:39;;;;;;;2.78;1.95;;;21.90;54.80;;;;;;4972847;28;20046;-75
2021/05/29 13:00:47;;;;;;;5.28;2.65;;;22.00;54.40;;;;;;4964879;28;20034;-75
2021/05/29 13:09:29;;;;;;;4.72;2.33;;;21.90;54.10;;;;;;4994139;28;20053;-74
2021/05/29 13:11:55;;;;;;;3.75;2.08;;;22.20;54.40;;;;;;4994265;28;20054;-75
2021/05/29 13:14:29;;;;;;;4.40;2.03;;;22.50;53.10;;;;;;4993396;28;20347;-74
2021/05/29 13:16:56;;;;;;;5.60;2.63;;;22.70;52.30;;;;;;4994071;28;20030;-75